Landels-Hill Big Creek Reserve Entrance, California Weather observations

Data are for 10 minute period ending at time listed.
 Day   Time   Solar   Ave.   Ave.  Ave.  Vector  Max.   Baro.   Total    
  of    of     Rad.   Air    Rel.  Wind   Wind   Wind  Press.  Precip.   
Year   Day            Temp.  Hum.  Speed  Dir.   Gust                    
2016   (PST)  Kw/m2    F      %     mph   deg.    mph    mb.     in.     
-------------------------------------------------------------------------
 240   15:50   0.49   67.0    64    4.2    26    11.0   1013.1    0.00 
 240   16:00   0.46   66.6    64    4.5    59     9.6   1013.0    0.00 
 240   16:10   0.42   66.5    64    5.0    44     9.9   1013.0    0.00 
 240   16:20   0.39   65.7    66    5.4   155    13.9   1012.9    0.00 
 240   16:30   0.36   64.9    67    7.1   158    12.9   1012.9    0.00 
 240   16:40   0.33   64.4    68    7.8   155    16.7   1012.8    0.00 
 240   16:50   0.30   64.6    67    7.6   168    14.3   1012.7    0.00 
 240   17:00   0.27   64.7    67    7.1   162    14.8   1012.7    0.00 
 240   17:10   0.23   64.9    66    7.7   163    14.9   1012.6    0.00 
 240   17:20   0.19   65.4    65    4.7   162    11.8   1012.4    0.00 
 240   17:30   0.06   65.1    66    4.3   172    12.1   1012.2    0.00 
 240   17:40   0.05   64.6    67    3.7   184     9.5   1012.0    0.00 
 240   17:50   0.04   64.6    67    2.8   127     8.2   1011.8    0.00 
 240   18:00   0.04   64.4    67    3.1   150     8.1   1011.7    0.00 
 240   18:10   0.03   64.0    68    3.0    53     9.3   1011.7    0.00 
 240   18:20   0.03   63.9    68    3.2    30     7.1   1011.7    0.00 
 240   18:30   0.02   63.6    68    3.7    63    10.1   1011.8    0.00 
 240   18:40   0.01   63.3    69    3.4    60     9.1   1011.8    0.00 
 240   18:50   0.01   63.0    69    4.8    52     9.4   1011.9    0.00 
 240   19:00   0.01   62.9    70    5.0    55     9.6   1012.0    0.00 
 240   19:10   0.00   62.7    70    5.4    55    10.3   1012.1    0.00 
 240   19:20   0.00   62.6    71    5.6    69    10.9   1012.3    0.00 
 240   19:30   0.00   62.6    71    5.1    70    11.8   1012.5    0.00 
 240   19:40   0.00   62.4    71    2.7    74    10.2   1012.6    0.00 
 240   19:50   0.00   61.0    73    1.2    31     4.9   1012.6    0.00 
 240   20:00   0.00   59.7    77    1.0    60     3.1   1012.8    0.00 
 240   20:10   0.00   59.1    78    1.1    41     3.1   1013.0    0.00 
 240   20:20   0.00   58.5    79    1.1    36     3.1   1013.2    0.00 
 240   20:30   0.00   58.1    80    0.8    54     2.6   1013.4    0.00 
 240   20:40   0.00   57.8    80    1.9    42     4.3   1013.6    0.00 
 240   20:50   0.00   57.4    81    2.1    34     4.7   1013.6    0.00 
 240   21:00   0.00   57.3    81    1.9   360     4.2   1013.7    0.00 
 240   21:10   0.00   56.9    82    2.0    25     5.0   1013.8    0.00 
 240   21:20   0.00   56.6    82    2.5   354     6.6   1013.7    0.00 
 240   21:30   0.00   56.4    83    2.8   358     5.0   1013.6    0.00 
 240   21:40   0.00   56.1    83    3.3     6     6.6   1013.7    0.00 
 240   21:50   0.00   55.7    84    2.1    20     5.8   1013.7    0.00 
 240   22:00   0.00   55.6    84    2.1    70     4.3   1013.7    0.00 
 240   22:10   0.00   55.7    84    2.4    45     4.7   1013.8    0.00 
 240   22:20   0.00   55.8    84    2.0    40     5.6   1013.9    0.00 
 240   22:30   0.00   55.6    84    2.0    80     4.2   1014.0    0.00 
 240   22:40   0.00   55.4    84    1.4    57     4.1   1014.0    0.00 
 240   22:50   0.00   55.3    84    2.0    55     4.0   1014.0    0.00 
 240   23:00   0.00   55.0    85    2.5    63     4.7   1014.0    0.00 
 240   23:10   0.00   55.0    85    1.9    53     4.5   1014.0    0.00 
 240   23:20   0.00   55.0    85    1.9    54     4.5   1014.0    0.00 
 240   23:30   0.00   54.9    85    1.6    46     3.7   1014.1    0.00 
 240   23:40   0.00   54.8    85    2.4    44     5.5   1014.0    0.00 
 240   23:50   0.00   54.7    85    2.0    42     4.5   1013.9    0.00 
 241    0:00   0.00   54.5    85    1.4    49     3.3   1013.9    0.00 
 241    0:10   0.00   54.3    86    2.1    52     4.4   1013.9    0.00 
 241    0:20   0.00   54.3    86    2.2    64     4.2   1013.9    0.00 
 241    0:30   0.00   54.1    86    1.7    35     3.7   1013.7    0.00 
 241    0:40   0.00   53.8    86    3.3    10     6.6   1013.6    0.00 
 241    0:50   0.00   53.6    87    2.2    19     5.8   1013.6    0.00 
 241    1:00   0.00   53.5    87    2.2    38     6.1   1013.6    0.00 
 241    1:10   0.00   53.4    87    2.1    65     4.7   1013.6    0.00 
 241    1:20   0.00   53.3    87    1.9    66     3.8   1013.7    0.00 
 241    1:30   0.00   53.2    87    2.2    57     4.2   1013.8    0.00 
 241    1:40   0.00   53.1    87    2.3    46     6.0   1013.9    0.00 
 241    1:50   0.00   53.0    87    2.4    59     5.5   1014.0    0.00 
 241    2:00   0.00   52.9    88    2.2    49     6.1   1014.1    0.00 
 241    2:10   0.00   52.9    87    2.7    33     5.8   1014.1    0.00 
 241    2:20   0.00   52.7    87    2.3    62     4.7   1014.1    0.00 
 241    2:30   0.00   52.6    88    2.3    49     5.6   1014.1    0.00 
 241    2:40   0.00   52.6    88    2.3    44     5.9   1014.1    0.00 
 241    2:50   0.00   52.4    88    2.4    63     4.3   1014.1    0.00 
 241    3:00   0.00   52.6    88    2.2    72     4.8   1014.1    0.00 
 241    3:10   0.00   52.4    88    2.6    48     4.5   1014.1    0.00 
 241    3:20   0.00   52.3    88    2.4    54     5.4   1014.0    0.00 
 241    3:30   0.00   52.2    88    2.7    46     5.9   1014.0    0.00 
 241    3:40   0.00   52.1    89    2.3    54     6.1   1014.0    0.00 
 241    3:50   0.00   52.2    89    2.7    46     6.1   1013.9    0.00 
 241    4:00   0.00   52.2    89    3.3     7     6.0   1013.8    0.00 
 241    4:10   0.00   52.0    89    2.5   356     4.7   1013.9    0.00 
 241    4:20   0.00   52.0    89    2.9    14     6.6   1014.0    0.00 
 241    4:30   0.00   52.0    89    2.5    35     6.5   1014.0    0.00 
 241    4:40   0.00   52.0    89    2.6    59     5.0   1014.0    0.00 
 241    4:50   0.00   52.1    90    2.3    49     4.0   1013.9    0.00 
 241    5:00   0.00   52.1    90    2.5    50     5.0   1013.9    0.00 
 241    5:10   0.00   52.1    90    2.9    63     6.1   1014.0    0.00 
 241    5:20   0.00   52.1    90    1.9    43     4.4   1014.0    0.00 
 241    5:30   0.01   52.0    90    2.3    39     4.5   1014.1    0.00 
 241    5:40   0.01   52.0    90    2.2    20     5.3   1014.2    0.00 
 241    5:50   0.01   52.0    90    2.2    48     5.6   1014.1    0.00 
 241    6:00   0.01   52.1    90    2.6    58     5.3   1014.2    0.00 
 241    6:10   0.02   52.1    90    2.3    45     6.2   1014.2    0.00 
 241    6:20   0.03   52.2    90    2.8    40     6.2   1014.1    0.00 
 241    6:30   0.03   52.4    90    2.2    17     4.5   1014.2    0.00 
 241    6:40   0.03   52.8    90    1.7    32     4.5   1014.3    0.00 
 241    6:50   0.03   52.9    89    1.7    41     3.5   1014.5    0.00 
 241    7:00   0.04   53.0    89    1.8    41     4.7   1014.5    0.00 
 241    7:10   0.04   53.4    89    1.5    38     3.7   1014.5    0.00 
 241    7:20   0.04   53.8    89    1.5    21     4.1   1014.5    0.00 
 241    7:30   0.04   54.1    88    0.8     4     3.5   1014.5    0.00 
 241    7:40   0.04   54.3    88    0.7     1     1.4   1014.7    0.00 
 241    7:50   0.05   54.4    88    0.1   354     0.7   1014.8    0.00 
 241    8:00   0.05   54.8    88    0.0     0     0.6   1014.9    0.00 
 241    8:10   0.05   55.7    89    0.1     8     1.2   1015.1    0.00 
 241    8:20   0.05   56.8    88    0.0     0     0.0   1015.1    0.00 
 241    8:30   0.06   57.4    87    0.4   271     4.2   1015.0    0.00 
 241    8:40   0.07   58.2    84    3.0   270     5.6   1015.0    0.00 
 241    8:50   0.07   59.0    82    1.0   286     4.5   1014.9    0.00 
 241    9:00   0.07   59.3    81    1.3    71     2.6   1015.0    0.00 
 241    9:10   0.08   59.6    81    1.2    44     3.4   1015.1    0.00 
 241    9:20   0.36   60.0    81    1.0    24     3.3   1015.3    0.00 
 241    9:30   0.53   61.3    78    2.6   271     6.5   1015.2    0.00 
 241    9:40   0.56   62.1    77    2.1   265     5.7   1015.3    0.00 
 241    9:50   0.59   61.5    78    2.8   258     5.8   1015.3    0.00 
 241   10:00   0.62   64.0    73    0.8    34     3.3   1015.5    0.00 
 241   10:10   0.65   63.4    73    1.9   251     5.3   1015.7    0.00 
 241   10:20   0.67   63.5    73    2.2   221     4.4   1015.7    0.00 
 241   10:30   0.69   64.0    71    1.9   182     4.3   1015.7    0.00 
 241   10:40   0.70   64.1    70    2.5   153     5.5   1015.8    0.00 
 241   10:50   0.72   64.5    70    2.1   164     5.3   1015.8    0.00 
 241   11:00   0.73   63.6    71    2.1   130     5.6   1015.7    0.00 
 241   11:10   0.74   65.1    68    2.8   197     7.2   1015.7    0.00 
 241   11:20   0.76   66.1    66    2.7   205     7.9   1015.7    0.00 
 241   11:30   0.77   65.0    69    4.0   178     8.9   1015.8    0.00 
 241   11:40   0.78   64.5    70    5.2   181    13.4   1015.7    0.00 
 241   11:50   0.79   64.5    70    3.1   320    11.0   1015.5    0.00 
 241   12:00   0.80   64.1    70    7.9   174    15.3   1015.3    0.00 
 241   12:10   0.80   64.0    70    4.4    94    11.2   1015.1    0.00 
 241   12:20   0.81   64.7    68    6.3   164    14.7   1014.9    0.00 
 241   12:30   0.80   63.8    69    7.4   175    17.8   1015.0    0.00 
 241   12:40   0.80   62.8    72    8.4   170    14.3   1014.9    0.00 
 241   12:50   0.80   62.9    72    8.3   171    17.0   1014.9    0.00 
 241   13:00   0.80   62.9    72    8.8   164    17.0   1015.0    0.00 
 241   13:10   0.78   63.6    70    5.8   178    12.6   1015.0    0.00 
 241   13:20   0.78   64.2    70    6.0   186    13.0   1014.9    0.00 
 241   13:30   0.77   64.1    70    6.7   176    13.1   1014.7    0.00 
 241   13:40   0.76   64.1    70    7.3   175    14.8   1014.6    0.00 
 241   13:50   0.75   64.1    70    8.9   174    15.3   1014.4    0.00 
 241   14:00   0.73   64.1    70    6.8   153    14.3   1014.3    0.00 
 241   14:10   0.72   65.1    67    5.8   151    13.4   1014.2    0.00 
 241   14:20   0.70   64.9    68    5.7    86    17.2   1014.2    0.00 
 241   14:30   0.69   65.4    68    5.3    66    12.3   1014.2    0.00 
 241   14:40   0.67   65.5    68    5.5   165    13.4   1014.2    0.00 
 241   14:50   0.64   64.5    70    6.3   167    13.4   1014.1    0.00 
 241   15:00   0.62   65.3    68    5.0   184    12.5   1014.2    0.00 
 241   15:10   0.59   65.2    69    5.3   176    12.3   1014.1    0.00 
 241   15:20   0.57   65.5    67    4.5   105    12.3   1014.1    0.00 
 241   15:30   0.54   65.9    66    4.2    32    10.7   1014.1    0.00 
 241   15:40   0.52   65.8    66    4.4    30    11.1   1014.1    0.00 

Return to Big Creek Reserve Entrance graphs page.


Western Regional Climate Center,wrcc@dri.edu